Dutch Harbor, AK

9:32 PM AKST on November 26, 2014 (GMT -0900)
Dutch Harbor | Change Station
CLOSE
Current Station
Airport
Location: Dutch Harbor,
Elevation: 13 ft
Nearby Weather Stations

Elev 13 ft 53.90 °N, 166.54 °W | Updated 36 minutes ago

Light Rain
Light Rain
43 °F
Feels Like 34 °F
N
20
Wind Variable Wind from South
Gusts 29 mph

Today
High -- | Low -- °F
--% Chance of Precip.
Yesterday
High -- | Low -- °F
Precip. -- in
9:53 AM 5:53 PM
Waxing Crescent, 26% visible
Pressure 29.90 in
Visibility 10.0 miles
Clouds Mostly Cloudy 2800 ft
Overcast 3700 ft
Windchill 34 °F
Dew Point 34 °F
Humidity 71%
Rainfall 0.07 in
Snow Depth Not available.
UV 0 out of 12
Pollen Not available.
Air Quality Not available.
Flu Activity Not available.
METAR PADU 270556Z AUTO 17017G25KT 10SM -RA BKN028 OVC037 06/01 A2988 RMK AO2 PK WND 14027/0521 RAB26 SLP123 P0000 60000 T00610011 10067 20056 56019

More Conditions Fewer Conditions

Pressure 29.90 in
Visibility 10.0 miles
Clouds Mostly Cloudy 2800 ft
Overcast 3700 ft
Windchill 34 °F
Dew Point 34 °F
Humidity 71%
Rainfall 0.07 in
Snow Depth Not available.
UV 0 out of 12
Pollen Not available.
Air Quality Not available.
Flu Activity Not available.
METAR PADU 270556Z AUTO 17017G25KT 10SM -RA BKN028 OVC037 06/01 A2988 RMK AO2 PK WND 14027/0521 RAB26 SLP123 P0000 60000 T00610011 10067 20056 56019

More Conditions Fewer Conditions

10-Day Weather Forecast

Almanac

Astronomy

Nov. 26, 2014 Rise Set
Actual Time
Civil Twilight
Nautical Twilight
Astronomical Twilight
Moon
Length of Visible Light
Length of Day
Tomorrow will be .
, % of the Moon is Illuminated

Today's Extremes

State Highs State Lows

Community

WunderPhotos

Upload Photos

1,773,962 photos uploaded!

WunderBlogs® & News

Nearby

Air Quality

  Air Quality AQ Index Pollutant
Not available.

Snow Depth

Station Depth Elevation

Earthquake Activity

City Distance Mag. Time & Date
Minimum magnitude displayed is 2.5.

Coastal Water Temperatures

Place Temperature

Nearby Weather Stations